sensor_id;sensor_type;location;lat;lon;timestamp;temperature;humidity
21698;DHT22;11010;49.548;11.926;2023-06-26T00:01:32;21.70;99.90
21698;DHT22;11010;49.548;11.926;2023-06-26T00:04:00;21.70;99.90
21698;DHT22;11010;49.548;11.926;2023-06-26T00:06:28;21.70;99.90
21698;DHT22;11010;49.548;11.926;2023-06-26T00:08:56;21.60;99.90
21698;DHT22;11010;49.548;11.926;2023-06-26T00:11:24;21.60;99.90
21698;DHT22;11010;49.548;11.926;2023-06-26T00:13:51;21.60;99.90
21698;DHT22;11010;49.548;11.926;2023-06-26T00:16:18;21.50;99.90
21698;DHT22;11010;49.548;11.926;2023-06-26T00:18:45;21.50;99.90
21698;DHT22;11010;49.548;11.926;2023-06-26T00:21:12;21.60;99.90
21698;DHT22;11010;49.548;11.926;2023-06-26T00:23:39;21.60;99.90
21698;DHT22;11010;49.548;11.926;2023-06-26T00:26:07;21.50;99.90
21698;DHT22;11010;49.548;11.926;2023-06-26T00:28:34;21.50;99.90
21698;DHT22;11010;49.548;11.926;2023-06-26T00:31:02;21.30;99.90
21698;DHT22;11010;49.548;11.926;2023-06-26T00:33:29;21.20;99.90
21698;DHT22;11010;49.548;11.926;2023-06-26T00:35:57;21.30;99.90
21698;DHT22;11010;49.548;11.926;2023-06-26T00:38:24;21.30;99.90
21698;DHT22;11010;49.548;11.926;2023-06-26T00:40:51;21.30;99.90
21698;DHT22;11010;49.548;11.926;2023-06-26T00:43:22;21.20;99.90
21698;DHT22;11010;49.548;11.926;2023-06-26T00:45:49;21.30;99.90
21698;DHT22;11010;49.548;11.926;2023-06-26T00:48:16;21.30;99.90
21698;DHT22;11010;49.548;11.926;2023-06-26T00:50:43;21.30;99.90
21698;DHT22;11010;49.548;11.926;2023-06-26T00:53:11;21.30;99.90
21698;DHT22;11010;49.548;11.926;2023-06-26T00:55:38;21.30;99.90
21698;DHT22;11010;49.548;11.926;2023-06-26T00:58:06;21.20;99.90
21698;DHT22;11010;49.548;11.926;2023-06-26T01:00:33;21.20;99.90
21698;DHT22;11010;49.548;11.926;2023-06-26T01:03:00;21.10;99.90
21698;DHT22;11010;49.548;11.926;2023-06-26T01:05:29;21.10;99.90
21698;DHT22;11010;49.548;11.926;2023-06-26T01:07:57;21.10;99.90
21698;DHT22;11010;49.548;11.926;2023-06-26T01:10:25;20.90;99.90
21698;DHT22;11010;49.548;11.926;2023-06-26T01:12:55;20.90;99.90
21698;DHT22;11010;49.548;11.926;2023-06-26T01:15:22;20.90;99.90
21698;DHT22;11010;49.548;11.926;2023-06-26T01:17:51;20.80;99.90
21698;DHT22;11010;49.548;11.926;2023-06-26T01:20:19;20.80;99.90
21698;DHT22;11010;49.548;11.926;2023-06-26T01:23:07;20.80;99.90
21698;DHT22;11010;49.548;11.926;2023-06-26T01:26:21;20.80;99.90
21698;DHT22;11010;49.548;11.926;2023-06-26T01:28:50;20.80;99.90
21698;DHT22;11010;49.548;11.926;2023-06-26T01:31:19;20.80;99.90
21698;DHT22;11010;49.548;11.926;2023-06-26T01:33:47;20.70;99.90
21698;DHT22;11010;49.548;11.926;2023-06-26T01:36:14;20.80;99.90
21698;DHT22;11010;49.548;11.926;2023-06-26T01:38:41;20.60;99.90
21698;DHT22;11010;49.548;11.926;2023-06-26T01:41:08;20.60;99.90
21698;DHT22;11010;49.548;11.926;2023-06-26T01:52:27;20.50;99.90
21698;DHT22;11010;49.548;11.926;2023-06-26T01:57:57;20.40;99.90
21698;DHT22;11010;49.548;11.926;2023-06-26T02:00:25;20.50;99.90
21698;DHT22;11010;49.548;11.926;2023-06-26T02:02:53;20.40;99.90
21698;DHT22;11010;49.548;11.926;2023-06-26T02:05:20;20.40;99.90
21698;DHT22;11010;49.548;11.926;2023-06-26T02:07:47;20.20;99.90
21698;DHT22;11010;49.548;11.926;2023-06-26T02:10:14;20.20;99.90
21698;DHT22;11010;49.548;11.926;2023-06-26T02:12:42;20.20;99.90
21698;DHT22;11010;49.548;11.926;2023-06-26T02:15:11;20.20;99.90
21698;DHT22;11010;49.548;11.926;2023-06-26T02:17:39;20.30;99.90
21698;DHT22;11010;49.548;11.926;2023-06-26T02:20:06;20.20;99.90
21698;DHT22;11010;49.548;11.926;2023-06-26T02:22:36;20.30;99.90
21698;DHT22;11010;49.548;11.926;2023-06-26T02:25:03;20.20;99.90
21698;DHT22;11010;49.548;11.926;2023-06-26T02:27:32;20.10;99.90
21698;DHT22;11010;49.548;11.926;2023-06-26T02:29:59;20.30;99.90
21698;DHT22;11010;49.548;11.926;2023-06-26T02:32:27;20.30;99.90
21698;DHT22;11010;49.548;11.926;2023-06-26T02:34:54;20.30;99.90
21698;DHT22;11010;49.548;11.926;2023-06-26T02:37:21;20.20;99.90
21698;DHT22;11010;49.548;11.926;2023-06-26T02:39:48;20.20;99.90
21698;DHT22;11010;49.548;11.926;2023-06-26T02:42:16;20.20;99.90
21698;DHT22;11010;49.548;11.926;2023-06-26T02:44:43;20.10;99.90
21698;DHT22;11010;49.548;11.926;2023-06-26T02:47:10;20.00;99.90
21698;DHT22;11010;49.548;11.926;2023-06-26T02:49:41;19.80;99.90
21698;DHT22;11010;49.548;11.926;2023-06-26T02:52:08;19.80;99.90
21698;DHT22;11010;49.548;11.926;2023-06-26T02:54:35;19.90;99.90
21698;DHT22;11010;49.548;11.926;2023-06-26T02:57:04;19.80;99.90
21698;DHT22;11010;49.548;11.926;2023-06-26T02:59:33;19.80;99.90
21698;DHT22;11010;49.548;11.926;2023-06-26T03:02:01;19.90;99.90
21698;DHT22;11010;49.548;11.926;2023-06-26T03:04:33;19.80;99.90
21698;DHT22;11010;49.548;11.926;2023-06-26T03:07:05;19.70;99.90
21698;DHT22;11010;49.548;11.926;2023-06-26T03:09:33;19.60;99.90
21698;DHT22;11010;49.548;11.926;2023-06-26T03:12:01;19.70;99.90
21698;DHT22;11010;49.548;11.926;2023-06-26T03:14:28;19.70;99.90
21698;DHT22;11010;49.548;11.926;2023-06-26T03:16:56;19.90;99.90
21698;DHT22;11010;49.548;11.926;2023-06-26T03:19:27;19.70;99.90
21698;DHT22;11010;49.548;11.926;2023-06-26T03:22:14;19.70;99.90
21698;DHT22;11010;49.548;11.926;2023-06-26T03:24:41;19.70;99.90
21698;DHT22;11010;49.548;11.926;2023-06-26T03:27:10;19.60;99.90
21698;DHT22;11010;49.548;11.926;2023-06-26T03:29:38;19.70;99.90
21698;DHT22;11010;49.548;11.926;2023-06-26T03:32:06;19.60;99.90
21698;DHT22;11010;49.548;11.926;2023-06-26T03:34:34;19.50;99.90
21698;DHT22;11010;49.548;11.926;2023-06-26T03:37:01;19.70;99.90
21698;DHT22;11010;49.548;11.926;2023-06-26T03:39:29;19.50;99.90
21698;DHT22;11010;49.548;11.926;2023-06-26T03:41:56;19.20;99.90
21698;DHT22;11010;49.548;11.926;2023-06-26T03:44:27;19.20;99.90
21698;DHT22;11010;49.548;11.926;2023-06-26T03:46:55;19.30;99.90
21698;DHT22;11010;49.548;11.926;2023-06-26T03:49:23;19.50;99.90
21698;DHT22;11010;49.548;11.926;2023-06-26T03:51:51;19.50;99.90
21698;DHT22;11010;49.548;11.926;2023-06-26T03:54:18;19.50;99.90
21698;DHT22;11010;49.548;11.926;2023-06-26T03:56:45;19.50;99.90
21698;DHT22;11010;49.548;11.926;2023-06-26T03:59:12;19.50;99.90
21698;DHT22;11010;49.548;11.926;2023-06-26T04:01:40;19.40;99.90
21698;DHT22;11010;49.548;11.926;2023-06-26T04:04:07;19.40;99.90
21698;DHT22;11010;49.548;11.926;2023-06-26T04:06:34;19.40;99.90
21698;DHT22;11010;49.548;11.926;2023-06-26T04:09:01;19.50;99.90
21698;DHT22;11010;49.548;11.926;2023-06-26T04:11:29;19.40;99.90
21698;DHT22;11010;49.548;11.926;2023-06-26T04:13:56;19.40;99.90
21698;DHT22;11010;49.548;11.926;2023-06-26T04:16:25;19.30;99.90
21698;DHT22;11010;49.548;11.926;2023-06-26T04:18:52;19.40;99.90
21698;DHT22;11010;49.548;11.926;2023-06-26T04:21:20;19.30;99.90
21698;DHT22;11010;49.548;11.926;2023-06-26T04:23:47;19.30;99.90
21698;DHT22;11010;49.548;11.926;2023-06-26T04:26:14;19.30;99.90
21698;DHT22;11010;49.548;11.926;2023-06-26T04:28:42;19.40;99.90
21698;DHT22;11010;49.548;11.926;2023-06-26T04:31:09;19.40;99.90
21698;DHT22;11010;49.548;11.926;2023-06-26T04:33:37;19.40;99.90
21698;DHT22;11010;49.548;11.926;2023-06-26T04:36:08;19.40;99.90
21698;DHT22;11010;49.548;11.926;2023-06-26T04:38:35;19.50;99.90
21698;DHT22;11010;49.548;11.926;2023-06-26T04:41:03;19.50;99.90
21698;DHT22;11010;49.548;11.926;2023-06-26T04:43:30;19.40;99.90
21698;DHT22;11010;49.548;11.926;2023-06-26T04:45:58;19.30;99.90
21698;DHT22;11010;49.548;11.926;2023-06-26T04:48:25;19.20;99.90
21698;DHT22;11010;49.548;11.926;2023-06-26T04:50:55;19.30;99.90
21698;DHT22;11010;49.548;11.926;2023-06-26T04:53:23;19.50;99.90
21698;DHT22;11010;49.548;11.926;2023-06-26T04:55:51;19.40;99.90
21698;DHT22;11010;49.548;11.926;2023-06-26T04:58:18;19.50;99.90
21698;DHT22;11010;49.548;11.926;2023-06-26T05:00:46;19.60;99.90
21698;DHT22;11010;49.548;11.926;2023-06-26T05:03:14;19.70;99.90
21698;DHT22;11010;49.548;11.926;2023-06-26T05:05:44;19.70;99.90
21698;DHT22;11010;49.548;11.926;2023-06-26T05:08:20;19.70;99.90
21698;DHT22;11010;49.548;11.926;2023-06-26T05:10:48;19.80;99.90
21698;DHT22;11010;49.548;11.926;2023-06-26T05:13:15;19.90;99.90
21698;DHT22;11010;49.548;11.926;2023-06-26T05:15:45;20.00;99.90
21698;DHT22;11010;49.548;11.926;2023-06-26T05:18:12;20.10;99.90
21698;DHT22;11010;49.548;11.926;2023-06-26T05:20:39;20.10;99.90
21698;DHT22;11010;49.548;11.926;2023-06-26T05:23:07;20.10;99.90
21698;DHT22;11010;49.548;11.926;2023-06-26T05:25:35;20.00;99.90
21698;DHT22;11010;49.548;11.926;2023-06-26T05:28:03;19.80;99.90
21698;DHT22;11010;49.548;11.926;2023-06-26T05:30:32;19.50;99.90
21698;DHT22;11010;49.548;11.926;2023-06-26T05:33:03;19.40;99.90
21698;DHT22;11010;49.548;11.926;2023-06-26T05:35:31;19.30;99.90
21698;DHT22;11010;49.548;11.926;2023-06-26T05:37:58;19.60;99.90
21698;DHT22;11010;49.548;11.926;2023-06-26T05:40:26;19.80;99.90
21698;DHT22;11010;49.548;11.926;2023-06-26T05:42:53;19.90;99.90
21698;DHT22;11010;49.548;11.926;2023-06-26T05:45:20;20.00;99.90
21698;DHT22;11010;49.548;11.926;2023-06-26T05:47:47;20.10;99.90
21698;DHT22;11010;49.548;11.926;2023-06-26T05:50:18;20.20;99.90
21698;DHT22;11010;49.548;11.926;2023-06-26T05:52:45;20.30;99.90
21698;DHT22;11010;49.548;11.926;2023-06-26T05:55:13;20.20;99.90
21698;DHT22;11010;49.548;11.926;2023-06-26T05:57:40;20.30;99.90
21698;DHT22;11010;49.548;11.926;2023-06-26T06:00:08;20.40;99.90
21698;DHT22;11010;49.548;11.926;2023-06-26T06:02:42;20.40;99.90
21698;DHT22;11010;49.548;11.926;2023-06-26T06:05:10;20.40;99.90
21698;DHT22;11010;49.548;11.926;2023-06-26T06:07:37;20.40;99.90
21698;DHT22;11010;49.548;11.926;2023-06-26T06:10:04;20.40;99.90
21698;DHT22;11010;49.548;11.926;2023-06-26T06:12:32;20.40;99.90
21698;DHT22;11010;49.548;11.926;2023-06-26T06:14:59;20.40;99.90
21698;DHT22;11010;49.548;11.926;2023-06-26T06:17:26;20.50;99.90
21698;DHT22;11010;49.548;11.926;2023-06-26T06:19:53;20.60;99.90
21698;DHT22;11010;49.548;11.926;2023-06-26T06:22:20;20.70;99.90
21698;DHT22;11010;49.548;11.926;2023-06-26T06:24:49;20.70;99.90
21698;DHT22;11010;49.548;11.926;2023-06-26T06:27:18;20.80;99.90
21698;DHT22;11010;49.548;11.926;2023-06-26T06:29:45;20.90;99.90
21698;DHT22;11010;49.548;11.926;2023-06-26T06:32:12;21.00;99.90
21698;DHT22;11010;49.548;11.926;2023-06-26T06:34:39;21.10;99.90
21698;DHT22;11010;49.548;11.926;2023-06-26T06:37:06;21.10;99.90
21698;DHT22;11010;49.548;11.926;2023-06-26T06:39:34;21.20;99.90
21698;DHT22;11010;49.548;11.926;2023-06-26T06:42:01;21.20;99.90
21698;DHT22;11010;49.548;11.926;2023-06-26T06:44:28;21.30;99.90
21698;DHT22;11010;49.548;11.926;2023-06-26T06:46:57;21.40;99.90
21698;DHT22;11010;49.548;11.926;2023-06-26T06:49:24;21.50;99.90
21698;DHT22;11010;49.548;11.926;2023-06-26T06:51:52;21.60;99.90
21698;DHT22;11010;49.548;11.926;2023-06-26T06:54:19;21.70;99.90
21698;DHT22;11010;49.548;11.926;2023-06-26T06:56:46;21.80;99.90
21698;DHT22;11010;49.548;11.926;2023-06-26T06:59:13;21.90;99.90
21698;DHT22;11010;49.548;11.926;2023-06-26T07:01:40;21.90;99.90
21698;DHT22;11010;49.548;11.926;2023-06-26T07:04:08;22.00;99.90
21698;DHT22;11010;49.548;11.926;2023-06-26T07:06:35;22.00;99.90
21698;DHT22;11010;49.548;11.926;2023-06-26T07:09:02;22.00;99.90
21698;DHT22;11010;49.548;11.926;2023-06-26T07:11:29;22.10;99.90
21698;DHT22;11010;49.548;11.926;2023-06-26T07:13:57;22.10;99.90
21698;DHT22;11010;49.548;11.926;2023-06-26T07:16:24;22.10;99.90
21698;DHT22;11010;49.548;11.926;2023-06-26T07:18:51;22.20;99.90
21698;DHT22;11010;49.548;11.926;2023-06-26T07:21:19;22.30;99.90
21698;DHT22;11010;49.548;11.926;2023-06-26T07:23:46;22.50;99.90
21698;DHT22;11010;49.548;11.926;2023-06-26T07:26:14;22.60;99.90
21698;DHT22;11010;49.548;11.926;2023-06-26T07:28:42;22.60;99.90
21698;DHT22;11010;49.548;11.926;2023-06-26T07:31:09;22.70;99.90
21698;DHT22;11010;49.548;11.926;2023-06-26T07:33:37;22.90;99.90
21698;DHT22;11010;49.548;11.926;2023-06-26T07:36:04;22.90;99.90
21698;DHT22;11010;49.548;11.926;2023-06-26T07:38:31;23.00;99.90
21698;DHT22;11010;49.548;11.926;2023-06-26T07:40:59;23.10;99.90
21698;DHT22;11010;49.548;11.926;2023-06-26T07:43:26;23.30;99.90
21698;DHT22;11010;49.548;11.926;2023-06-26T07:45:53;23.30;99.90
21698;DHT22;11010;49.548;11.926;2023-06-26T07:48:20;23.40;99.90
21698;DHT22;11010;49.548;11.926;2023-06-26T07:50:47;23.40;99.90
21698;DHT22;11010;49.548;11.926;2023-06-26T07:53:14;23.50;99.90
21698;DHT22;11010;49.548;11.926;2023-06-26T07:55:42;23.60;99.90
21698;DHT22;11010;49.548;11.926;2023-06-26T07:58:09;23.80;99.90
21698;DHT22;11010;49.548;11.926;2023-06-26T08:00:36;24.00;99.90
21698;DHT22;11010;49.548;11.926;2023-06-26T08:03:04;24.10;99.90
21698;DHT22;11010;49.548;11.926;2023-06-26T08:05:34;24.10;99.90
21698;DHT22;11010;49.548;11.926;2023-06-26T08:08:02;24.10;99.90
21698;DHT22;11010;49.548;11.926;2023-06-26T08:10:30;24.20;99.90
21698;DHT22;11010;49.548;11.926;2023-06-26T08:12:57;24.40;99.90
21698;DHT22;11010;49.548;11.926;2023-06-26T08:15:25;24.50;99.90
21698;DHT22;11010;49.548;11.926;2023-06-26T08:17:52;24.40;99.90
21698;DHT22;11010;49.548;11.926;2023-06-26T08:20:19;24.50;99.90
21698;DHT22;11010;49.548;11.926;2023-06-26T08:22:47;24.70;99.90
21698;DHT22;11010;49.548;11.926;2023-06-26T08:25:16;24.60;99.90
21698;DHT22;11010;49.548;11.926;2023-06-26T08:27:43;24.70;99.90
21698;DHT22;11010;49.548;11.926;2023-06-26T08:30:10;24.90;99.90
21698;DHT22;11010;49.548;11.926;2023-06-26T08:32:38;25.00;99.90
21698;DHT22;11010;49.548;11.926;2023-06-26T08:35:06;25.20;99.90
21698;DHT22;11010;49.548;11.926;2023-06-26T08:37:34;25.50;99.90
21698;DHT22;11010;49.548;11.926;2023-06-26T08:40:01;25.40;99.90
21698;DHT22;11010;49.548;11.926;2023-06-26T08:42:29;25.50;99.90
21698;DHT22;11010;49.548;11.926;2023-06-26T08:44:56;25.70;99.90
21698;DHT22;11010;49.548;11.926;2023-06-26T08:47:30;25.70;99.90
21698;DHT22;11010;49.548;11.926;2023-06-26T08:50:06;25.80;99.90
21698;DHT22;11010;49.548;11.926;2023-06-26T08:52:37;25.80;99.90
21698;DHT22;11010;49.548;11.926;2023-06-26T08:55:10;25.90;99.90
21698;DHT22;11010;49.548;11.926;2023-06-26T08:57:40;26.10;99.90
21698;DHT22;11010;49.548;11.926;2023-06-26T09:00:08;26.30;99.90
21698;DHT22;11010;49.548;11.926;2023-06-26T09:02:37;26.30;99.90
21698;DHT22;11010;49.548;11.926;2023-06-26T09:05:05;26.40;99.90
21698;DHT22;11010;49.548;11.926;2023-06-26T09:07:33;26.60;99.90
21698;DHT22;11010;49.548;11.926;2023-06-26T09:10:00;26.50;99.90
21698;DHT22;11010;49.548;11.926;2023-06-26T09:12:29;26.50;99.90
21698;DHT22;11010;49.548;11.926;2023-06-26T09:14:58;26.70;99.90
21698;DHT22;11010;49.548;11.926;2023-06-26T09:17:30;27.10;99.90
21698;DHT22;11010;49.548;11.926;2023-06-26T09:19:58;27.10;99.90
21698;DHT22;11010;49.548;11.926;2023-06-26T09:22:26;27.10;99.90
21698;DHT22;11010;49.548;11.926;2023-06-26T09:24:54;27.00;99.90
21698;DHT22;11010;49.548;11.926;2023-06-26T09:27:22;27.10;99.90
21698;DHT22;11010;49.548;11.926;2023-06-26T09:29:50;27.20;99.90
21698;DHT22;11010;49.548;11.926;2023-06-26T09:32:17;27.30;99.90
21698;DHT22;11010;49.548;11.926;2023-06-26T09:34:45;27.20;99.90
21698;DHT22;11010;49.548;11.926;2023-06-26T09:37:12;27.40;99.90
21698;DHT22;11010;49.548;11.926;2023-06-26T09:39:40;27.50;99.90
21698;DHT22;11010;49.548;11.926;2023-06-26T09:42:08;27.60;99.90
21698;DHT22;11010;49.548;11.926;2023-06-26T09:44:36;27.60;99.90
21698;DHT22;11010;49.548;11.926;2023-06-26T09:47:04;27.80;99.90
21698;DHT22;11010;49.548;11.926;2023-06-26T09:49:32;28.20;99.90
21698;DHT22;11010;49.548;11.926;2023-06-26T09:52:00;28.20;99.90
21698;DHT22;11010;49.548;11.926;2023-06-26T09:54:29;28.00;99.90
21698;DHT22;11010;49.548;11.926;2023-06-26T09:57:18;28.00;99.90
21698;DHT22;11010;49.548;11.926;2023-06-26T09:59:46;28.10;99.90
21698;DHT22;11010;49.548;11.926;2023-06-26T10:02:13;28.10;99.90
21698;DHT22;11010;49.548;11.926;2023-06-26T10:04:41;28.40;99.90
21698;DHT22;11010;49.548;11.926;2023-06-26T10:07:11;28.80;99.90
21698;DHT22;11010;49.548;11.926;2023-06-26T10:09:41;28.50;99.40
21698;DHT22;11010;49.548;11.926;2023-06-26T10:12:36;28.80;99.60
21698;DHT22;11010;49.548;11.926;2023-06-26T10:15:03;29.10;99.60
21698;DHT22;11010;49.548;11.926;2023-06-26T10:17:34;28.90;99.20
21698;DHT22;11010;49.548;11.926;2023-06-26T10:20:04;29.00;99.10
21698;DHT22;11010;49.548;11.926;2023-06-26T10:22:46;29.20;99.40
21698;DHT22;11010;49.548;11.926;2023-06-26T10:25:19;29.70;98.60
21698;DHT22;11010;49.548;11.926;2023-06-26T10:27:54;29.70;97.90
21698;DHT22;11010;49.548;11.926;2023-06-26T10:30:31;29.80;98.30
21698;DHT22;11010;49.548;11.926;2023-06-26T10:33:00;29.60;97.70
21698;DHT22;11010;49.548;11.926;2023-06-26T10:35:30;29.30;97.40
21698;DHT22;11010;49.548;11.926;2023-06-26T10:38:02;30.10;98.60
21698;DHT22;11010;49.548;11.926;2023-06-26T10:40:44;29.70;98.10
21698;DHT22;11010;49.548;11.926;2023-06-26T10:43:16;30.10;97.70
21698;DHT22;11010;49.548;11.926;2023-06-26T10:45:47;29.90;97.60
21698;DHT22;11010;49.548;11.926;2023-06-26T10:48:19;29.70;97.70
21698;DHT22;11010;49.548;11.926;2023-06-26T10:50:48;29.70;97.80
21698;DHT22;11010;49.548;11.926;2023-06-26T10:55:55;29.90;97.30
21698;DHT22;11010;49.548;11.926;2023-06-26T10:58:32;30.40;97.00
21698;DHT22;11010;49.548;11.926;2023-06-26T11:03:43;31.10;96.70
21698;DHT22;11010;49.548;11.926;2023-06-26T11:06:12;30.80;96.80
21698;DHT22;11010;49.548;11.926;2023-06-26T11:08:47;30.50;95.70
21698;DHT22;11010;49.548;11.926;2023-06-26T11:11:16;30.40;96.40
21698;DHT22;11010;49.548;11.926;2023-06-26T11:13:45;30.40;96.20
21698;DHT22;11010;49.548;11.926;2023-06-26T11:16:14;30.40;96.00
21698;DHT22;11010;49.548;11.926;2023-06-26T11:18:42;31.00;95.70
21698;DHT22;11010;49.548;11.926;2023-06-26T11:21:10;30.90;94.40
21698;DHT22;11010;49.548;11.926;2023-06-26T11:23:41;30.80;95.50
21698;DHT22;11010;49.548;11.926;2023-06-26T11:28:54;31.00;95.50
21698;DHT22;11010;49.548;11.926;2023-06-26T11:31:29;31.40;95.70
21698;DHT22;11010;49.548;11.926;2023-06-26T11:34:01;31.70;95.60
21698;DHT22;11010;49.548;11.926;2023-06-26T11:36:30;31.60;95.20
21698;DHT22;11010;49.548;11.926;2023-06-26T11:39:02;31.20;94.70
21698;DHT22;11010;49.548;11.926;2023-06-26T11:41:36;31.30;94.30
21698;DHT22;11010;49.548;11.926;2023-06-26T11:44:08;31.60;94.60
21698;DHT22;11010;49.548;11.926;2023-06-26T11:46:37;31.20;94.40
21698;DHT22;11010;49.548;11.926;2023-06-26T11:49:08;30.50;96.10
21698;DHT22;11010;49.548;11.926;2023-06-26T11:51:35;30.00;96.00
21698;DHT22;11010;49.548;11.926;2023-06-26T11:54:03;29.60;96.40
21698;DHT22;11010;49.548;11.926;2023-06-26T11:56:32;30.00;95.60
21698;DHT22;11010;49.548;11.926;2023-06-26T11:59:04;30.60;96.00
21698;DHT22;11010;49.548;11.926;2023-06-26T12:01:39;30.50;95.70
21698;DHT22;11010;49.548;11.926;2023-06-26T12:04:09;30.70;95.50
21698;DHT22;11010;49.548;11.926;2023-06-26T12:06:38;30.40;95.30
21698;DHT22;11010;49.548;11.926;2023-06-26T12:09:09;30.10;94.80
21698;DHT22;11010;49.548;11.926;2023-06-26T12:11:44;30.60;95.00
21698;DHT22;11010;49.548;11.926;2023-06-26T12:14:11;30.40;95.10
21698;DHT22;11010;49.548;11.926;2023-06-26T12:16:42;30.90;95.30
21698;DHT22;11010;49.548;11.926;2023-06-26T12:19:10;31.00;94.10
21698;DHT22;11010;49.548;11.926;2023-06-26T12:24:05;30.90;94.40
21698;DHT22;11010;49.548;11.926;2023-06-26T12:26:32;30.40;94.70
21698;DHT22;11010;49.548;11.926;2023-06-26T12:29:33;30.10;95.40
21698;DHT22;11010;49.548;11.926;2023-06-26T12:32:01;29.80;95.20
21698;DHT22;11010;49.548;11.926;2023-06-26T12:34:33;30.80;95.50
21698;DHT22;11010;49.548;11.926;2023-06-26T12:39:29;31.20;95.20
21698;DHT22;11010;49.548;11.926;2023-06-26T12:42:00;31.10;94.30
21698;DHT22;11010;49.548;11.926;2023-06-26T12:44:32;31.70;94.90
21698;DHT22;11010;49.548;11.926;2023-06-26T12:47:01;31.80;94.50
21698;DHT22;11010;49.548;11.926;2023-06-26T12:49:37;31.80;93.50
21698;DHT22;11010;49.548;11.926;2023-06-26T12:52:07;31.70;93.70
21698;DHT22;11010;49.548;11.926;2023-06-26T12:54:36;31.10;93.10
21698;DHT22;11010;49.548;11.926;2023-06-26T12:57:04;31.20;93.70
21698;DHT22;11010;49.548;11.926;2023-06-26T12:59:35;30.70;93.30
21698;DHT22;11010;49.548;11.926;2023-06-26T13:02:03;30.80;94.00
21698;DHT22;11010;49.548;11.926;2023-06-26T13:04:31;31.50;94.10
21698;DHT22;11010;49.548;11.926;2023-06-26T13:06:58;31.90;94.10
21698;DHT22;11010;49.548;11.926;2023-06-26T13:09:26;31.70;93.60
21698;DHT22;11010;49.548;11.926;2023-06-26T13:11:53;31.60;93.20
21698;DHT22;11010;49.548;11.926;2023-06-26T13:14:21;30.90;93.80
21698;DHT22;11010;49.548;11.926;2023-06-26T13:16:48;30.50;94.10
21698;DHT22;11010;49.548;11.926;2023-06-26T13:19:16;30.70;95.00
21698;DHT22;11010;49.548;11.926;2023-06-26T13:21:43;30.80;94.40
21698;DHT22;11010;49.548;11.926;2023-06-26T13:24:10;30.60;94.20
21698;DHT22;11010;49.548;11.926;2023-06-26T13:26:37;30.40;93.90
21698;DHT22;11010;49.548;11.926;2023-06-26T13:29:05;30.90;94.00
21698;DHT22;11010;49.548;11.926;2023-06-26T13:31:32;30.50;94.00
21698;DHT22;11010;49.548;11.926;2023-06-26T13:34:02;30.30;94.00
21698;DHT22;11010;49.548;11.926;2023-06-26T13:36:31;30.60;94.30
21698;DHT22;11010;49.548;11.926;2023-06-26T13:39:01;31.20;93.30
21698;DHT22;11010;49.548;11.926;2023-06-26T13:41:29;31.10;93.30
21698;DHT22;11010;49.548;11.926;2023-06-26T13:43:57;31.20;92.00
21698;DHT22;11010;49.548;11.926;2023-06-26T13:46:32;31.30;92.00
21698;DHT22;11010;49.548;11.926;2023-06-26T13:49:00;31.10;91.70
21698;DHT22;11010;49.548;11.926;2023-06-26T13:51:27;31.20;91.50
21698;DHT22;11010;49.548;11.926;2023-06-26T13:53:54;31.40;91.60
21698;DHT22;11010;49.548;11.926;2023-06-26T13:56:22;31.40;91.80
21698;DHT22;11010;49.548;11.926;2023-06-26T13:58:49;31.10;91.20
21698;DHT22;11010;49.548;11.926;2023-06-26T14:01:16;31.30;91.20
21698;DHT22;11010;49.548;11.926;2023-06-26T14:03:44;31.30;90.80
21698;DHT22;11010;49.548;11.926;2023-06-26T14:06:11;31.50;91.10
21698;DHT22;11010;49.548;11.926;2023-06-26T14:08:38;31.70;91.50
21698;DHT22;11010;49.548;11.926;2023-06-26T14:11:05;31.90;90.80
21698;DHT22;11010;49.548;11.926;2023-06-26T14:13:32;31.80;90.50
21698;DHT22;11010;49.548;11.926;2023-06-26T14:16:00;31.90;90.50
21698;DHT22;11010;49.548;11.926;2023-06-26T14:18:27;31.30;90.60
21698;DHT22;11010;49.548;11.926;2023-06-26T14:20:54;31.40;90.50
21698;DHT22;11010;49.548;11.926;2023-06-26T14:23:22;31.50;91.00
21698;DHT22;11010;49.548;11.926;2023-06-26T14:25:49;31.60;90.30
21698;DHT22;11010;49.548;11.926;2023-06-26T14:28:16;31.30;90.20
21698;DHT22;11010;49.548;11.926;2023-06-26T14:30:43;31.60;91.40
21698;DHT22;11010;49.548;11.926;2023-06-26T14:33:11;31.70;90.60
21698;DHT22;11010;49.548;11.926;2023-06-26T14:35:38;31.50;90.60
21698;DHT22;11010;49.548;11.926;2023-06-26T14:38:05;31.50;90.80
21698;DHT22;11010;49.548;11.926;2023-06-26T14:40:32;31.50;90.70
21698;DHT22;11010;49.548;11.926;2023-06-26T14:43:00;31.20;90.90
21698;DHT22;11010;49.548;11.926;2023-06-26T14:45:28;31.60;91.40
21698;DHT22;11010;49.548;11.926;2023-06-26T14:47:55;31.20;91.00
21698;DHT22;11010;49.548;11.926;2023-06-26T14:50:23;31.30;91.20
21698;DHT22;11010;49.548;11.926;2023-06-26T14:52:50;31.10;91.10
21698;DHT22;11010;49.548;11.926;2023-06-26T14:55:18;31.20;90.70
21698;DHT22;11010;49.548;11.926;2023-06-26T14:57:45;31.40;90.90
21698;DHT22;11010;49.548;11.926;2023-06-26T15:00:13;31.30;90.90
21698;DHT22;11010;49.548;11.926;2023-06-26T15:02:41;31.40;91.40
21698;DHT22;11010;49.548;11.926;2023-06-26T15:05:08;31.00;91.30
21698;DHT22;11010;49.548;11.926;2023-06-26T15:07:36;30.60;91.80
21698;DHT22;11010;49.548;11.926;2023-06-26T15:10:04;30.40;91.80
21698;DHT22;11010;49.548;11.926;2023-06-26T15:12:33;30.20;91.90
21698;DHT22;11010;49.548;11.926;2023-06-26T15:15:00;30.10;92.50
21698;DHT22;11010;49.548;11.926;2023-06-26T15:17:27;30.00;92.60
21698;DHT22;11010;49.548;11.926;2023-06-26T15:19:54;29.80;92.70
21698;DHT22;11010;49.548;11.926;2023-06-26T15:22:23;29.70;92.90
21698;DHT22;11010;49.548;11.926;2023-06-26T15:24:53;29.50;93.00
21698;DHT22;11010;49.548;11.926;2023-06-26T15:27:20;29.50;93.50
21698;DHT22;11010;49.548;11.926;2023-06-26T15:29:51;29.40;93.60
21698;DHT22;11010;49.548;11.926;2023-06-26T15:32:18;29.50;93.70
21698;DHT22;11010;49.548;11.926;2023-06-26T15:34:46;29.50;93.80
21698;DHT22;11010;49.548;11.926;2023-06-26T15:37:14;29.60;94.00
21698;DHT22;11010;49.548;11.926;2023-06-26T15:39:42;29.80;94.30
21698;DHT22;11010;49.548;11.926;2023-06-26T15:42:09;29.60;94.70
21698;DHT22;11010;49.548;11.926;2023-06-26T15:44:37;29.60;95.40
21698;DHT22;11010;49.548;11.926;2023-06-26T15:47:05;29.70;95.80
21698;DHT22;11010;49.548;11.926;2023-06-26T15:49:32;29.80;95.90